createdAt,value
2017-05-25T00:00:46.227Z,10.38
2017-05-25T00:02:08.395Z,10.6
2017-05-25T00:03:30.836Z,10.6
2017-05-25T00:04:52.682Z,10.6
2017-05-25T00:06:15.159Z,10.76
2017-05-25T00:07:37.335Z,10.88
2017-05-25T00:08:59.422Z,10.96
2017-05-25T00:10:21.570Z,10.99
2017-05-25T00:11:43.078Z,11.06
2017-05-25T00:13:04.905Z,11.14
2017-05-25T00:14:27.363Z,11.19
2017-05-25T00:15:49.210Z,11.22
2017-05-25T00:17:11.413Z,11.29
2017-05-25T00:18:33.549Z,11.28
2017-05-25T00:19:56.395Z,11.28
2017-05-25T00:21:18.233Z,11.29
2017-05-25T00:22:40.763Z,11.36
2017-05-25T00:24:02.682Z,11.4
2017-05-25T00:25:25.473Z,11.54
2017-05-25T00:26:47.365Z,11.72
2017-05-25T00:28:09.224Z,11.8
2017-05-25T00:29:31.055Z,11.85
2017-05-25T00:30:52.914Z,11.96
2017-05-25T00:32:14.743Z,12.12
2017-05-25T00:33:37.210Z,12.16
2017-05-25T00:34:58.415Z,12.14
2017-05-25T00:36:21.435Z,12.24
2017-05-25T00:37:43.323Z,12.29
2017-05-25T00:39:05.584Z,12.29
2017-05-25T00:40:28.047Z,12.38
2017-05-25T00:41:50.174Z,12.42
2017-05-25T00:43:11.356Z,12.39
2017-05-25T00:44:32.973Z,12.54
2017-05-25T00:45:54.911Z,12.47
2017-05-25T00:47:17.315Z,12.57
2017-05-25T00:48:39.561Z,12.59
2017-05-25T00:50:02.069Z,12.6
2017-05-25T00:51:24.242Z,12.71
2017-05-25T00:52:46.778Z,12.71
2017-05-25T00:54:08.664Z,12.7
2017-05-25T00:55:30.904Z,12.78
2017-05-25T00:56:52.104Z,12.77
2017-05-25T00:58:14.604Z,12.82
2017-05-25T00:59:36.997Z,12.85
2017-05-25T01:00:58.254Z,12.87
2017-05-25T01:02:19.785Z,12.82
2017-05-25T01:03:41.902Z,12.83
2017-05-25T01:05:03.405Z,12.87
2017-05-25T01:06:25.886Z,12.83
2017-05-25T01:07:48.030Z,12.85
2017-05-25T01:09:09.861Z,12.87
2017-05-25T01:10:32.025Z,12.79
2017-05-25T01:11:53.859Z,12.82
2017-05-25T01:13:15.717Z,12.74
2017-05-25T01:14:37.592Z,12.82
2017-05-25T01:15:59.413Z,12.78
2017-05-25T01:17:21.581Z,12.85
2017-05-25T01:18:43.398Z,12.78
2017-05-25T01:20:05.576Z,12.72
2017-05-25T01:21:27.715Z,12.82
2017-05-25T01:22:49.671Z,12.75
2017-05-25T01:24:12.145Z,12.82
2017-05-25T01:25:34.964Z,12.78
2017-05-25T01:26:56.787Z,12.83
2017-05-25T01:28:18.623Z,12.83
2017-05-25T01:29:40.474Z,12.83
2017-05-25T01:31:02.572Z,12.85
2017-05-25T01:32:25.017Z,12.85
2017-05-25T01:33:47.171Z,12.85
2017-05-25T01:35:08.703Z,12.79
2017-05-25T01:36:30.848Z,12.79
2017-05-25T01:37:52.671Z,12.83
2017-05-25T01:39:14.177Z,12.7
2017-05-25T01:40:35.714Z,12.71
2017-05-25T01:41:57.945Z,12.7
2017-05-25T01:43:20.091Z,12.6
2017-05-25T01:44:42.614Z,12.6
2017-05-25T01:46:04.764Z,12.62
2017-05-25T01:47:27.312Z,12.53
2017-05-25T01:48:49.475Z,12.53
2017-05-25T01:50:11.020Z,12.54
2017-05-25T01:51:32.844Z,12.54
2017-05-25T01:52:54.973Z,12.5
2017-05-25T01:54:16.499Z,12.54
2017-05-25T01:55:38.332Z,12.49
2017-05-25T01:57:00.166Z,12.54
2017-05-25T01:58:23.034Z,12.53
2017-05-25T01:59:45.234Z,12.5
2017-05-25T02:01:07.424Z,12.53
2017-05-25T02:02:29.584Z,12.56
2017-05-25T02:03:52.318Z,12.53
2017-05-25T02:05:14.214Z,12.52
2017-05-25T02:06:36.054Z,12.53
2017-05-25T02:07:58.353Z,12.47
2017-05-25T02:09:20.493Z,12.56
2017-05-25T02:10:43.194Z,12.57
2017-05-25T02:12:05.345Z,12.54
2017-05-25T02:13:27.174Z,12.54
2017-05-25T02:14:49.361Z,12.53
2017-05-25T02:16:11.503Z,12.57
2017-05-25T02:17:33.697Z,12.54
2017-05-25T02:18:54.581Z,12.54
2017-05-25T02:20:17.140Z,12.5
2017-05-25T02:21:38.987Z,12.52
2017-05-25T02:23:01.164Z,12.49
2017-05-25T02:24:22.980Z,12.54
2017-05-25T02:25:45.482Z,12.53
2017-05-25T02:27:07.625Z,12.53
2017-05-25T02:28:29.784Z,12.56
2017-05-25T02:29:51.623Z,12.56
2017-05-25T02:31:14.124Z,12.41
2017-05-25T02:32:36.394Z,12.52
2017-05-25T02:33:58.383Z,12.45
2017-05-25T02:35:19.917Z,12.45
2017-05-25T02:36:42.331Z,12.47
2017-05-25T02:38:04.172Z,12.54
2017-05-25T02:39:26.739Z,12.41
2017-05-25T02:40:48.680Z,12.52
2017-05-25T02:42:11.063Z,12.42
2017-05-25T02:43:32.573Z,12.47
2017-05-25T02:44:54.097Z,12.54
2017-05-25T02:46:16.246Z,12.53
2017-05-25T02:47:38.740Z,12.54
2017-05-25T02:49:00.889Z,12.49
2017-05-25T02:50:22.404Z,12.52
2017-05-25T02:51:44.566Z,12.53
2017-05-25T02:53:07.031Z,12.5
2017-05-25T02:54:28.551Z,12.52
2017-05-25T02:55:50.701Z,12.57
2017-05-25T02:57:12.566Z,12.52
2017-05-25T02:58:34.966Z,12.54
2017-05-25T02:59:56.858Z,12.56
2017-05-25T03:01:18.691Z,12.59
2017-05-25T03:02:40.904Z,12.62
2017-05-25T03:04:03.722Z,12.67
2017-05-25T03:05:26.037Z,12.68
2017-05-25T03:06:48.484Z,12.65
2017-05-25T03:08:09.997Z,12.65
2017-05-25T03:09:32.437Z,12.71
2017-05-25T03:10:54.580Z,12.7
2017-05-25T03:12:16.108Z,12.67
2017-05-25T03:13:37.726Z,12.65
2017-05-25T03:15:00.357Z,12.68
2017-05-25T03:16:22.182Z,12.67
2017-05-25T03:17:44.668Z,12.72
2017-05-25T03:19:06.485Z,12.82
2017-05-25T03:20:28.921Z,12.75
2017-05-25T03:21:50.741Z,12.77
2017-05-25T03:23:12.251Z,12.82
2017-05-25T03:24:34.394Z,12.77
2017-05-25T03:25:56.286Z,12.87
2017-05-25T03:27:18.743Z,12.82
2017-05-25T03:28:40.888Z,12.83
2017-05-25T03:30:03.040Z,12.85
2017-05-25T03:31:25.292Z,12.95
2017-05-25T03:32:47.754Z,12.86
2017-05-25T03:34:09.025Z,12.89
2017-05-25T03:35:31.194Z,12.95
2017-05-25T03:36:53.382Z,12.92
2017-05-25T03:38:15.644Z,12.93
2017-05-25T03:39:37.488Z,12.89
2017-05-25T03:40:59.011Z,12.97
2017-05-25T03:42:21.496Z,13.04
2017-05-25T03:43:42.729Z,13.08
2017-05-25T03:45:04.943Z,13.12
2017-05-25T03:46:26.148Z,13.03
2017-05-25T03:47:48.337Z,13.14
2017-05-25T03:49:10.188Z,13.17
2017-05-25T03:50:32.341Z,13.2
2017-05-25T03:51:54.166Z,13.2
2017-05-25T03:53:16.692Z,13.17
2017-05-25T03:54:38.975Z,13.23
2017-05-25T03:56:01.434Z,13.2
2017-05-25T03:57:22.975Z,13.23
2017-05-25T03:58:44.783Z,13.17
2017-05-25T04:00:06.299Z,13.2
2017-05-25T04:01:28.131Z,13.17
2017-05-25T04:02:49.540Z,13.22
2017-05-25T04:04:11.674Z,13.19
2017-05-25T04:05:34.255Z,13.32
2017-05-25T04:06:56.133Z,13.23
2017-05-25T04:08:18.723Z,13.25
2017-05-25T04:09:41.023Z,13.29
2017-05-25T04:11:03.362Z,13.33
2017-05-25T04:12:25.535Z,13.36
2017-05-25T04:13:48.085Z,13.48
2017-05-25T04:15:09.534Z,13.51
2017-05-25T04:16:31.103Z,13.45
2017-05-25T04:17:53.574Z,13.49
2017-05-25T04:19:15.703Z,13.49
2017-05-25T04:20:38.140Z,13.46
2017-05-25T04:21:59.660Z,13.57
2017-05-25T04:23:22.225Z,13.54
2017-05-25T04:24:44.045Z,13.57
2017-05-25T04:26:06.532Z,13.66
2017-05-25T04:27:28.995Z,13.59
2017-05-25T04:28:51.253Z,13.55
2017-05-25T04:30:12.802Z,13.69
2017-05-25T04:31:34.972Z,13.62
2017-05-25T04:32:56.840Z,13.71
2017-05-25T04:34:18.363Z,13.59
2017-05-25T04:35:40.844Z,13.59
2017-05-25T04:37:03.660Z,13.62
2017-05-25T04:38:25.495Z,13.59
2017-05-25T04:39:47.334Z,13.54
2017-05-25T04:41:09.174Z,13.48
2017-05-25T04:42:31.265Z,13.49
2017-05-25T04:43:53.223Z,13.54
2017-05-25T04:45:15.356Z,13.59
2017-05-25T04:46:38.018Z,13.49
2017-05-25T04:48:00.794Z,13.42
2017-05-25T04:49:22.634Z,13.45
2017-05-25T04:50:44.475Z,13.51
2017-05-25T04:52:06.004Z,13.44
2017-05-25T04:53:28.555Z,13.49
2017-05-25T04:54:50.712Z,13.51
2017-05-25T04:56:11.913Z,13.48
2017-05-25T04:57:34.051Z,13.49
2017-05-25T04:58:56.204Z,13.44
2017-05-25T05:00:18.451Z,13.51
2017-05-25T05:01:40.354Z,13.46
2017-05-25T05:03:01.924Z,13.49
2017-05-25T05:04:24.155Z,13.39
2017-05-25T05:05:46.328Z,13.39
2017-05-25T05:07:07.951Z,13.46
2017-05-25T05:08:30.552Z,13.3
2017-05-25T05:09:53.050Z,13.22
2017-05-25T05:11:15.265Z,13.26
2017-05-25T05:12:37.409Z,13.39
2017-05-25T05:13:59.254Z,13.28
2017-05-25T05:15:21.654Z,13.14
2017-05-25T05:16:43.812Z,13.04
2017-05-25T05:18:05.466Z,13.07
2017-05-25T05:19:27.298Z,13.12
2017-05-25T05:20:49.464Z,13.19
2017-05-25T05:22:10.994Z,13.08
2017-05-25T05:23:32.534Z,13.19
2017-05-25T05:24:54.669Z,13.23
2017-05-25T05:26:17.495Z,13.22
2017-05-25T05:27:39.734Z,13.22
2017-05-25T05:29:01.692Z,13.22
2017-05-25T05:30:22.933Z,13.11
2017-05-25T05:31:44.545Z,13.05
2017-05-25T05:33:06.513Z,13.17
2017-05-25T05:34:28.671Z,13
2017-05-25T05:35:50.632Z,13.05
2017-05-25T05:37:13.365Z,13.08
2017-05-25T05:38:35.518Z,13.01
2017-05-25T05:39:57.414Z,13.03
2017-05-25T05:41:19.493Z,13.12
2017-05-25T05:42:42.075Z,13.1
2017-05-25T05:44:04.231Z,13.04
2017-05-25T05:45:25.744Z,13.04
2017-05-25T05:46:47.904Z,13.03
2017-05-25T05:48:11.034Z,13.01
2017-05-25T05:49:32.594Z,13.04
2017-05-25T05:50:54.797Z,13.12
2017-05-25T05:52:16.311Z,13.08
2017-05-25T05:53:38.502Z,13.2
2017-05-25T05:55:00.995Z,13.15
2017-05-25T05:56:22.819Z,13.23
2017-05-25T05:57:45.150Z,13.2
2017-05-25T05:59:07.144Z,13.26
2017-05-25T06:00:29.442Z,13.28
2017-05-25T06:01:51.935Z,13.36
2017-05-25T06:03:14.159Z,13.33
2017-05-25T06:04:36.447Z,13.39
2017-05-25T06:05:58.925Z,13.42
2017-05-25T06:07:20.780Z,13.44
2017-05-25T06:08:42.722Z,13.32
2017-05-25T06:10:05.233Z,13.28
2017-05-25T06:11:27.174Z,13.19
2017-05-25T06:12:49.356Z,13.2
2017-05-25T06:14:11.479Z,13.15
2017-05-25T06:15:34.082Z,13.05
2017-05-25T06:16:56.554Z,13.12
2017-05-25T06:18:18.793Z,13.23
2017-05-25T06:19:40.936Z,13.26
2017-05-25T06:21:03.284Z,13.22
2017-05-25T06:22:25.545Z,13.3
2017-05-25T06:23:47.712Z,13.39
2017-05-25T06:25:09.894Z,13.32
2017-05-25T06:26:32.355Z,13.39
2017-05-25T06:27:53.557Z,13.01
2017-05-25T06:29:17.704Z,13.2
2017-05-25T06:30:42.703Z,13.3
2017-05-25T06:32:04.834Z,13.36
2017-05-25T06:33:27.068Z,13.49
2017-05-25T06:34:49.226Z,13.59
2017-05-25T06:37:54.516Z,14.07
2017-05-25T06:39:17.381Z,14.14
2017-05-25T06:40:41.426Z,14.28
2017-05-25T06:42:03.697Z,14.29
2017-05-25T06:43:28.246Z,14.57
2017-05-25T06:44:50.724Z,14.64
2017-05-25T06:46:13.184Z,14.68
2017-05-25T06:47:35.427Z,14.61
2017-05-25T06:48:59.664Z,14.64
2017-05-25T06:50:21.992Z,14.77
2017-05-25T06:51:44.453Z,14.84
2017-05-25T06:53:07.160Z,14.84
2017-05-25T06:54:29.394Z,14.78
2017-05-25T06:55:51.229Z,14.98
2017-05-25T06:57:13.405Z,14.99
2017-05-25T06:58:35.873Z,15.09
2017-05-25T06:59:57.662Z,15.07
2017-05-25T07:01:19.517Z,15.07
2017-05-25T07:02:41.388Z,15.02
2017-05-25T07:04:04.037Z,14.92
2017-05-25T07:05:26.552Z,15.06
2017-05-25T07:06:48.727Z,14.98
2017-05-25T07:08:11.221Z,15.01
2017-05-25T07:09:33.075Z,15.09
2017-05-25T07:10:55.491Z,14.99
2017-05-25T07:12:17.345Z,15.03
2017-05-25T07:13:39.905Z,15.17
2017-05-25T07:15:02.098Z,15.06
2017-05-25T07:16:25.073Z,14.99
2017-05-25T07:17:47.252Z,14.99
2017-05-25T07:19:09.750Z,15.03
2017-05-25T07:20:31.635Z,15.02
2017-05-25T07:21:54.583Z,15.2
2017-05-25T07:23:16.868Z,15.38
2017-05-25T07:24:38.732Z,15.56
2017-05-25T07:26:00.876Z,15.51
2017-05-25T07:27:23.783Z,15.67
2017-05-25T07:28:45.646Z,15.84
2017-05-25T07:30:07.885Z,15.96
2017-05-25T07:31:30.032Z,16.07
2017-05-25T07:32:52.231Z,16.02
2017-05-25T07:34:14.403Z,16.25
2017-05-25T07:35:36.591Z,16.43
2017-05-25T07:36:59.065Z,16.73
2017-05-25T07:38:20.929Z,16.97
2017-05-25T07:39:43.110Z,17.26
2017-05-25T07:41:05.575Z,17.74
2017-05-25T07:42:28.066Z,18.05
2017-05-25T07:43:50.680Z,17.95
2017-05-25T07:45:12.981Z,17.92
2017-05-25T07:46:34.821Z,17.99
2017-05-25T07:47:56.985Z,17.87
2017-05-25T07:49:19.205Z,17.64
2017-05-25T07:50:41.765Z,18.12
2017-05-25T07:52:03.973Z,18.27
2017-05-25T07:53:26.392Z,18.26
2017-05-25T07:54:49.191Z,18.29
2017-05-25T07:56:11.694Z,18.35
2017-05-25T07:57:33.758Z,18.91
2017-05-25T07:58:55.974Z,19.08
2017-05-25T08:00:18.846Z,19.1
2017-05-25T08:01:41.056Z,19.71
2017-05-25T08:03:03.574Z,20.17
2017-05-25T08:04:26.046Z,20.33
2017-05-25T08:05:48.659Z,20.05
2017-05-25T08:07:10.517Z,19.59
2017-05-25T08:08:32.859Z,19.73
2017-05-25T08:09:55.026Z,19.73
2017-05-25T08:11:17.132Z,19.59
2017-05-25T08:12:39.280Z,19.28
2017-05-25T08:14:00.823Z,19.13
2017-05-25T08:15:23.000Z,18.94
2017-05-25T08:16:45.171Z,19.06
2017-05-25T08:18:07.375Z,19.54
2017-05-25T08:19:29.586Z,19.78
2017-05-25T08:20:52.074Z,19.81
2017-05-25T08:22:14.855Z,20.05
2017-05-25T08:23:36.732Z,20.59
2017-05-25T08:24:58.892Z,20.66
2017-05-25T08:26:21.521Z,19.83
2017-05-25T08:27:43.622Z,19.44
2017-05-25T08:29:06.120Z,19.14
2017-05-25T08:30:27.994Z,19.39
2017-05-25T08:31:50.155Z,19.32
2017-05-25T08:33:12.554Z,18.99
2017-05-25T08:34:35.065Z,18.84
2017-05-25T08:35:57.268Z,18.88
2017-05-25T08:37:18.465Z,18.84
2017-05-25T08:38:40.931Z,18.84
2017-05-25T08:40:02.822Z,18.5
2017-05-25T08:41:25.005Z,18.23
2017-05-25T08:42:47.063Z,18.69
2017-05-25T08:44:09.214Z,19.37
2017-05-25T08:45:31.419Z,19.36
2017-05-25T08:46:53.267Z,19.37
2017-05-25T08:48:15.766Z,19.19
2017-05-25T08:49:37.982Z,19.1
2017-05-25T08:51:00.475Z,19.19
2017-05-25T08:52:22.368Z,19.16
2017-05-25T08:53:44.912Z,19.31
2017-05-25T08:55:07.389Z,19.31
2017-05-25T08:56:29.396Z,19.71
2017-05-25T08:57:51.886Z,20.16
2017-05-25T08:59:14.086Z,20.55
2017-05-25T09:00:36.618Z,20.51
2017-05-25T09:01:59.095Z,20.13
2017-05-25T09:03:21.266Z,19.87
2017-05-25T09:04:43.424Z,19.96
2017-05-25T09:06:05.566Z,19.99
2017-05-25T09:07:28.051Z,19.95
2017-05-25T09:08:49.650Z,20.03
2017-05-25T09:10:11.834Z,20.2
2017-05-25T09:11:34.687Z,20.08
2017-05-25T09:12:57.165Z,20.39
2017-05-25T09:14:21.656Z,20.43
2017-05-25T09:15:44.016Z,20.43
2017-05-25T09:17:06.220Z,20.41
2017-05-25T09:18:28.377Z,20.59
2017-05-25T09:19:50.936Z,21.16
2017-05-25T09:21:13.400Z,21.37
2017-05-25T09:22:36.113Z,21.21
2017-05-25T09:23:58.291Z,20.79
2017-05-25T09:25:20.775Z,20.43
2017-05-25T09:26:42.942Z,20.7
2017-05-25T09:28:05.235Z,20.88
2017-05-25T09:29:27.882Z,20.88
2017-05-25T09:30:50.054Z,20.59
2017-05-25T09:32:12.194Z,20.48
2017-05-25T09:33:35.077Z,20.26
2017-05-25T09:34:57.693Z,20.2
2017-05-25T09:36:20.173Z,20.66
2017-05-25T09:37:42.055Z,20.57
2017-05-25T09:39:04.514Z,20.5
2017-05-25T09:40:26.450Z,20.05
2017-05-25T09:41:48.784Z,19.61
2017-05-25T09:43:10.646Z,20.03
2017-05-25T09:44:33.210Z,19.37
2017-05-25T09:45:55.699Z,19.16
2017-05-25T09:47:18.260Z,19.23
2017-05-25T09:48:40.404Z,19.56
2017-05-25T09:50:03.115Z,19.47
2017-05-25T09:51:25.164Z,19.36
2017-05-25T09:52:47.100Z,19.37
2017-05-25T09:54:09.017Z,19.37
2017-05-25T09:55:31.229Z,19.13
2017-05-25T09:56:53.505Z,19.39
2017-05-25T09:58:16.042Z,19.23
2017-05-25T09:59:38.571Z,19.23
2017-05-25T10:01:01.062Z,19.47
2017-05-25T10:02:23.173Z,19.76
2017-05-25T10:03:44.936Z,19.71
2017-05-25T10:05:06.809Z,19.73
2017-05-25T10:06:30.394Z,19.36
2017-05-25T10:07:52.971Z,19.26
2017-05-25T10:09:14.343Z,19.21
2017-05-25T10:10:35.875Z,19.59
2017-05-25T10:11:58.785Z,19.69
2017-05-25T10:13:21.103Z,19.91
2017-05-25T10:14:43.285Z,19.98
2017-05-25T10:16:05.444Z,20.03
2017-05-25T10:17:28.245Z,20.16
2017-05-25T10:18:50.397Z,20.21
2017-05-25T10:20:12.885Z,20.36
2017-05-25T10:21:35.063Z,20.59
2017-05-25T10:22:57.233Z,20.54
2017-05-25T10:24:19.571Z,20.79
2017-05-25T10:25:41.751Z,20.97
2017-05-25T10:27:04.013Z,21.14
2017-05-25T10:28:26.620Z,21.16
2017-05-25T10:29:48.815Z,21.19
2017-05-25T10:31:11.026Z,21.22
2017-05-25T10:32:33.301Z,21.12
2017-05-25T10:33:56.152Z,21.31
2017-05-25T10:35:18.413Z,21.43
2017-05-25T10:36:40.891Z,21.47
2017-05-25T10:38:02.434Z,21.71
2017-05-25T10:39:24.669Z,21.42
2017-05-25T10:40:46.848Z,21.14
2017-05-25T10:42:09.423Z,21.43
2017-05-25T10:43:31.655Z,21.31
2017-05-25T10:44:54.194Z,21.17
2017-05-25T10:46:16.383Z,21.25
2017-05-25T10:47:38.890Z,21.22
2017-05-25T10:49:01.088Z,21.21
2017-05-25T10:50:23.774Z,20.43
2017-05-25T10:51:45.787Z,20.11
2017-05-25T10:53:08.108Z,19.98
2017-05-25T10:54:30.290Z,20.33
2017-05-25T10:55:52.754Z,20.57
2017-05-25T10:57:15.262Z,20.99
2017-05-25T10:58:37.515Z,21.22
2017-05-25T11:00:00.029Z,21.31
2017-05-25T11:01:22.559Z,21.37
2017-05-25T11:02:45.071Z,20.31
2017-05-25T11:04:07.665Z,19.8
2017-05-25T11:05:29.851Z,20.24
2017-05-25T11:06:52.422Z,20.99
2017-05-25T11:08:14.583Z,21.61
2017-05-25T11:09:37.214Z,21.72
2017-05-25T11:10:58.974Z,21.43
2017-05-25T11:12:20.941Z,21.28
2017-05-25T11:13:43.139Z,21.37
2017-05-25T11:15:05.143Z,21.4
2017-05-25T11:16:27.320Z,21.12
2017-05-25T11:17:49.631Z,21.96
2017-05-25T11:19:12.133Z,21.99
2017-05-25T11:20:34.327Z,22.03
2017-05-25T11:21:56.802Z,21.59
2017-05-25T11:23:19.602Z,21.44
2017-05-25T11:24:41.935Z,20.87
2017-05-25T11:26:03.813Z,20.99
2017-05-25T11:27:26.532Z,20.28
2017-05-25T11:28:49.055Z,20.32
2017-05-25T11:30:11.562Z,20.92
2017-05-25T11:31:33.802Z,21.25
2017-05-25T11:32:56.132Z,21.28
2017-05-25T11:34:18.298Z,21.98
2017-05-25T11:35:40.499Z,21.56
2017-05-25T11:37:02.350Z,22.03
2017-05-25T11:38:24.531Z,21.46
2017-05-25T11:39:47.373Z,21.83
2017-05-25T11:41:09.311Z,21.83
2017-05-25T11:42:31.814Z,21.5
2017-05-25T11:43:53.661Z,21.17
2017-05-25T11:45:16.183Z,20.36
2017-05-25T11:46:38.355Z,20.59
2017-05-25T11:48:00.862Z,21.53
2017-05-25T11:49:23.342Z,22.17
2017-05-25T11:50:45.812Z,21.92
2017-05-25T11:52:07.660Z,22.12
2017-05-25T11:53:29.521Z,22.33
2017-05-25T11:54:51.742Z,22.58
2017-05-25T11:56:14.571Z,22.72
2017-05-25T11:57:37.062Z,22.88
2017-05-25T11:58:58.922Z,22.77
2017-05-25T12:00:21.185Z,22.15
2017-05-25T12:01:43.747Z,22.05
2017-05-25T12:03:06.259Z,22.09
2017-05-25T12:04:28.623Z,22.25
2017-05-25T12:05:50.525Z,21.53
2017-05-25T12:07:12.413Z,21.49
2017-05-25T12:08:34.751Z,21.53
2017-05-25T12:09:56.933Z,21.35
2017-05-25T12:11:19.428Z,21.86
2017-05-25T12:12:41.921Z,22.27
2017-05-25T12:14:03.801Z,21.98
2017-05-25T12:15:25.821Z,21.9
2017-05-25T12:16:47.701Z,21.29
2017-05-25T12:18:10.204Z,21.27
2017-05-25T12:19:32.711Z,21.25
2017-05-25T12:20:54.892Z,20.67
2017-05-25T12:22:17.222Z,21.07
2017-05-25T12:23:40.034Z,21.22
2017-05-25T12:25:02.309Z,20.94
2017-05-25T12:26:24.153Z,20.58
2017-05-25T12:27:46.021Z,20.62
2017-05-25T12:29:08.216Z,20.76
2017-05-25T12:30:30.431Z,21.04
2017-05-25T12:31:52.918Z,21.31
2017-05-25T12:33:15.182Z,21.35
2017-05-25T12:34:37.939Z,21.59
2017-05-25T12:36:00.195Z,21.28
2017-05-25T12:37:22.689Z,21.61
2017-05-25T12:38:44.862Z,21.67
2017-05-25T12:40:07.395Z,22.05
2017-05-25T12:41:29.581Z,22.25
2017-05-25T12:42:51.753Z,22.35
2017-05-25T12:44:14.300Z,22.03
2017-05-25T12:45:36.463Z,21.42
2017-05-25T12:46:59.080Z,21.59
2017-05-25T12:48:20.921Z,21.74
2017-05-25T12:49:43.108Z,22
2017-05-25T12:51:05.602Z,21.77
2017-05-25T12:52:27.858Z,21.88
2017-05-25T12:53:50.039Z,21.88
2017-05-25T12:55:12.522Z,21.94
2017-05-25T12:56:34.383Z,22.1
2017-05-25T12:57:56.887Z,21.69
2017-05-25T12:59:18.824Z,21.71
2017-05-25T13:00:41.303Z,21.59
2017-05-25T13:02:03.850Z,21.49
2017-05-25T13:03:25.701Z,21.62
2017-05-25T13:04:47.592Z,21.65
2017-05-25T13:06:09.862Z,22.02
2017-05-25T13:07:32.341Z,21.88
2017-05-25T13:08:54.201Z,21.77
2017-05-25T13:10:16.171Z,22.02
2017-05-25T13:11:38.399Z,22
2017-05-25T13:13:00.886Z,22
2017-05-25T13:14:23.053Z,22.15
2017-05-25T13:15:45.212Z,21.65
2017-05-25T13:17:07.472Z,21.53
2017-05-25T13:18:30.089Z,21.64
2017-05-25T13:19:52.580Z,21.5
2017-05-25T13:21:14.449Z,21.16
2017-05-25T13:22:36.961Z,21.52
2017-05-25T13:23:59.425Z,21.19
2017-05-25T13:25:21.290Z,21.22
2017-05-25T13:26:43.179Z,21.47
2017-05-25T13:28:05.036Z,20.97
2017-05-25T13:29:27.920Z,21.31
2017-05-25T13:30:50.399Z,21.74
2017-05-25T13:32:12.889Z,22.12
2017-05-25T13:33:35.093Z,22.55
2017-05-25T13:34:57.647Z,22.77
2017-05-25T13:36:19.824Z,22.73
2017-05-25T13:37:41.692Z,23.01
2017-05-25T13:39:03.856Z,23
2017-05-25T13:40:26.381Z,22.88
2017-05-25T13:41:48.363Z,22.58
2017-05-25T13:43:10.960Z,22.2
2017-05-25T13:44:33.471Z,22.22
2017-05-25T13:45:55.902Z,22.3
2017-05-25T13:47:17.751Z,21.98
2017-05-25T13:48:39.918Z,22.25
2017-05-25T13:50:02.411Z,22.14
2017-05-25T13:51:25.212Z,22.33
2017-05-25T13:52:47.050Z,22.52
2017-05-25T13:54:08.582Z,22.55
2017-05-25T13:55:31.052Z,22.31
2017-05-25T13:56:53.830Z,22.33
2017-05-25T13:58:16.322Z,22.4
2017-05-25T13:59:38.861Z,22.36
2017-05-25T14:01:00.752Z,22.31
2017-05-25T14:02:22.950Z,21.72
2017-05-25T14:03:45.113Z,21.29
2017-05-25T14:05:07.278Z,21.01
2017-05-25T14:06:29.787Z,21.25
2017-05-25T14:07:52.641Z,21.53
2017-05-25T14:09:14.872Z,21.67
2017-05-25T14:10:36.772Z,21.65
2017-05-25T14:11:58.961Z,21.94
2017-05-25T14:13:21.259Z,21.32
2017-05-25T14:14:43.896Z,21.58
2017-05-25T14:16:06.400Z,21.88
2017-05-25T14:17:28.568Z,22.02
2017-05-25T14:18:50.457Z,22.14
2017-05-25T14:20:12.635Z,22.03
2017-05-25T14:21:35.110Z,22.12
2017-05-25T14:22:57.740Z,21.59
2017-05-25T14:24:20.272Z,21.56
2017-05-25T14:25:42.424Z,21.56
2017-05-25T14:27:04.581Z,21.31
2017-05-25T14:28:27.153Z,21.27
2017-05-25T14:29:49.954Z,21.24
2017-05-25T14:31:12.222Z,21.42
2017-05-25T14:32:34.054Z,21.68
2017-05-25T14:33:56.568Z,21.64
2017-05-25T14:35:19.032Z,21.44
2017-05-25T14:36:41.630Z,21.29
2017-05-25T14:38:03.808Z,20.7
2017-05-25T14:39:26.041Z,20.94
2017-05-25T14:40:48.461Z,21.17
2017-05-25T14:42:10.632Z,21.34
2017-05-25T14:43:32.906Z,21.07
2017-05-25T14:44:55.078Z,21.25
2017-05-25T14:46:17.595Z,21.43
2017-05-25T14:47:39.472Z,21.14
2017-05-25T14:49:01.682Z,21.19
2017-05-25T14:50:24.143Z,21.32
2017-05-25T14:51:47.010Z,21.07
2017-05-25T14:53:09.180Z,21.17
2017-05-25T14:54:31.362Z,21.32
2017-05-25T14:55:53.605Z,21.31
2017-05-25T14:57:16.550Z,21.64
2017-05-25T14:58:38.710Z,21.74
2017-05-25T15:00:00.897Z,21.28
2017-05-25T15:01:23.075Z,21.35
2017-05-25T15:02:45.995Z,21.5
2017-05-25T15:04:08.461Z,21.72
2017-05-25T15:05:30.614Z,21.96
2017-05-25T15:06:52.142Z,22.24
2017-05-25T15:08:14.877Z,22.15
2017-05-25T15:09:37.076Z,22.03
2017-05-25T15:10:58.928Z,21.29
2017-05-25T15:12:21.441Z,21.49
2017-05-25T15:13:44.363Z,21.28
2017-05-25T15:15:06.853Z,21.31
2017-05-25T15:16:29.406Z,20.97
2017-05-25T15:17:51.574Z,21.19
2017-05-25T15:19:14.547Z,21.47
2017-05-25T15:20:37.062Z,21.59
2017-05-25T15:21:58.883Z,21.75
2017-05-25T15:23:21.377Z,21.94
2017-05-25T15:24:43.202Z,22.02
2017-05-25T15:26:05.675Z,21.96
2017-05-25T15:27:28.292Z,21.62
2017-05-25T15:28:50.753Z,21.34
2017-05-25T15:30:13.528Z,20.94
2017-05-25T15:31:35.752Z,21.24
2017-05-25T15:32:57.303Z,21.46
2017-05-25T15:34:19.807Z,21.31
2017-05-25T15:35:41.727Z,21.29
2017-05-25T15:37:04.216Z,21.22
2017-05-25T15:38:26.051Z,21.32
2017-05-25T15:39:47.911Z,21.22
2017-05-25T15:41:10.793Z,20.57
2017-05-25T15:42:33.299Z,20.66
2017-05-25T15:43:54.853Z,20.59
2017-05-25T15:45:17.356Z,20.57
2017-05-25T15:46:40.163Z,20.42
2017-05-25T15:48:01.990Z,20.24
2017-05-25T15:49:24.156Z,20.33
2017-05-25T15:50:46.063Z,20.39
2017-05-25T15:52:08.461Z,20.52
2017-05-25T15:53:31.020Z,20.28
2017-05-25T15:54:53.522Z,19.96
2017-05-25T15:56:16.014Z,19.74
2017-05-25T15:57:38.882Z,20.1
2017-05-25T15:59:01.357Z,19.71
2017-05-25T16:00:23.526Z,19.96
2017-05-25T16:01:46.012Z,19.81
2017-05-25T16:03:08.610Z,19.73
2017-05-25T16:04:30.560Z,19.55
2017-05-25T16:05:52.853Z,19.4
2017-05-25T16:07:14.383Z,19.4
2017-05-25T16:08:36.891Z,19.41
2017-05-25T16:09:59.083Z,19.18
2017-05-25T16:11:21.272Z,19.07
2017-05-25T16:12:43.451Z,19.22
2017-05-25T16:14:06.245Z,19.28
2017-05-25T16:15:28.812Z,19.21
2017-05-25T16:16:51.392Z,19.36
2017-05-25T16:18:13.592Z,19.22
2017-05-25T16:19:36.311Z,19.47
2017-05-25T16:20:58.558Z,19.43
2017-05-25T16:22:20.084Z,19.61
2017-05-25T16:23:42.570Z,19.61
2017-05-25T16:25:05.288Z,19.33
2017-05-25T16:26:27.441Z,19.47
2017-05-25T16:27:49.430Z,19.43
2017-05-25T16:29:11.618Z,19.33
2017-05-25T16:30:34.106Z,19.46
2017-05-25T16:31:56.598Z,19.43
2017-05-25T16:33:18.896Z,19.43
2017-05-25T16:34:41.071Z,19.56
2017-05-25T16:36:03.371Z,19.61
2017-05-25T16:37:25.534Z,19.36
2017-05-25T16:38:47.746Z,19.32
2017-05-25T16:40:09.648Z,19.4
2017-05-25T16:41:31.907Z,19.37
2017-05-25T16:42:54.169Z,19.43
2017-05-25T16:44:16.333Z,19.26
2017-05-25T16:45:38.491Z,19.36
2017-05-25T16:47:01.420Z,19.33
2017-05-25T16:48:22.947Z,19.14
2017-05-25T16:49:45.092Z,19.07
2017-05-25T16:51:07.272Z,19.16
2017-05-25T16:52:30.080Z,19.23
2017-05-25T16:53:52.052Z,19.26
2017-05-25T16:55:14.314Z,19.19
2017-05-25T16:56:36.461Z,19.1
2017-05-25T16:57:58.769Z,18.76
2017-05-25T16:59:21.383Z,18.62
2017-05-25T17:00:43.389Z,18.5
2017-05-25T17:02:05.536Z,18.55
2017-05-25T17:03:28.029Z,18.62
2017-05-25T17:04:49.904Z,18.62
2017-05-25T17:06:12.423Z,18.6
2017-05-25T17:07:34.592Z,18.6
2017-05-25T17:08:57.126Z,18.65
2017-05-25T17:10:18.631Z,18.84
2017-05-25T17:11:40.142Z,18.76
2017-05-25T17:13:02.030Z,18.84
2017-05-25T17:14:24.267Z,18.63
2017-05-25T17:15:46.455Z,18.78
2017-05-25T17:17:08.613Z,18.69
2017-05-25T17:18:30.781Z,18.73
2017-05-25T17:19:53.880Z,18.8
2017-05-25T17:21:15.425Z,18.82
2017-05-25T17:22:37.622Z,18.9
2017-05-25T17:23:59.778Z,18.85
2017-05-25T17:25:21.559Z,18.76
2017-05-25T17:26:43.708Z,18.8
2017-05-25T17:28:05.556Z,18.72
2017-05-25T17:29:27.721Z,18.72
2017-05-25T17:30:50.251Z,18.57
2017-05-25T17:32:12.872Z,18.51
2017-05-25T17:33:35.531Z,18.14
2017-05-25T17:34:57.747Z,18.35
2017-05-25T17:36:20.591Z,18.32
2017-05-25T17:37:42.771Z,18.35
2017-05-25T17:39:04.363Z,18.35
2017-05-25T17:40:26.562Z,18.27
2017-05-25T17:41:49.362Z,18.33
2017-05-25T17:43:11.609Z,18.3
2017-05-25T17:44:33.777Z,18.23